Time;durP1;ratioP1;P1;durP2;ratioP2;P2;SDS_P1;SDS_P2;PMS_P1;PMS_P2;Temp;Humidity;BMP_temperature;BMP_pressure;BME280_temperature;BME280_humidity;BME280_pressure;Samples;Min_cycle;Max_cycle;Signal;HPM_P1;HPM_P2
2022/06/24 00:00:31;;;;;;;1.67;1.58;;;;;;;19.81;53.82;96553.28;9977577;29;20054;-53
2022/06/24 00:05:56;;;;;;;2.22;1.55;;;;;;;19.79;53.75;96542.03;9943231;29;20084;-51
2022/06/24 00:11:15;;;;;;;2.13;1.60;;;;;;;19.78;53.82;96551.28;9953480;29;20063;-53
2022/06/24 00:16:55;;;;;;;1.52;1.42;;;;;;;19.79;53.79;96552.84;9963810;29;20047;-53
2022/06/24 00:22:14;;;;;;;1.60;1.50;;;;;;;19.80;53.75;96556.31;9961663;29;20063;-53
2022/06/24 00:27:34;;;;;;;1.77;1.67;;;;;;;19.79;53.79;96554.75;9954374;29;20058;-53
2022/06/24 00:33:08;;;;;;;1.58;1.48;;;;;;;19.78;53.78;96551.28;9947562;29;20073;-53
2022/06/24 00:38:31;;;;;;;1.52;1.42;;;;;;;19.78;53.66;96553.97;9957058;29;20065;-53
2022/06/24 00:43:55;;;;;;;2.00;1.80;;;;;;;19.79;53.54;96554.75;9951253;29;20066;-51
2022/06/24 00:49:23;;;;;;;1.95;1.48;;;;;;;19.78;53.48;96551.28;9961400;29;20047;-53
2022/06/24 00:54:43;;;;;;;2.70;1.67;;;;;;;19.77;53.52;96541.56;9942301;29;20539;-52
2022/06/24 01:00:04;;;;;;;1.70;1.60;;;;;;;19.78;53.47;96545.06;9964507;29;20058;-52
2022/06/24 01:05:24;;;;;;;1.50;1.40;;;;;;;19.78;53.41;96545.88;9951596;29;20059;-50
2022/06/24 01:10:48;;;;;;;1.67;1.58;;;;;;;19.78;53.55;96545.06;9956953;29;20085;-52
2022/06/24 01:16:07;;;;;;;1.60;1.50;;;;;;;19.76;53.38;96537.28;9949262;29;20517;-51
2022/06/24 01:21:47;;;;;;;1.92;1.60;;;;;;;19.78;53.29;96531.53;9963144;29;20742;-53
2022/06/24 01:27:06;;;;;;;1.80;1.63;;;;;;;19.77;53.23;96530.75;9953530;29;20783;-53
2022/06/24 01:32:26;;;;;;;2.10;1.65;;;;;;;19.77;53.33;96527.28;9965484;29;20058;-53
2022/06/24 01:37:46;;;;;;;1.77;1.60;;;;;;;19.75;53.20;96512.16;9953739;29;20070;-52
2022/06/24 01:43:05;;;;;;;1.58;1.48;;;;;;;19.76;53.22;96515.66;9963676;29;20070;-52
2022/06/24 01:48:25;;;;;;;1.73;1.63;;;;;;;19.76;53.28;96502.16;9949135;29;20607;-53
2022/06/24 01:53:44;;;;;;;2.58;1.60;;;;;;;19.75;53.38;96503.28;9963258;29;20824;-53
2022/06/24 01:59:03;;;;;;;1.80;1.70;;;;;;;19.76;53.12;96499.47;9948209;29;20083;-53
2022/06/24 02:04:23;;;;;;;1.70;1.60;;;;;;;19.75;53.16;96493.25;9970496;29;20141;-53
2022/06/24 02:15:20;;;;;;;2.03;1.83;;;;;;;19.75;53.01;96487.06;9961285;29;20062;-52
2022/06/24 02:20:40;;;;;;;2.17;1.70;;;;;;;19.75;52.95;96482.44;9953143;29;20568;-51
2022/06/24 02:25:59;;;;;;;2.53;2.03;;;;;;;19.74;52.98;96486.28;9966332;29;20062;-53
2022/06/24 02:31:19;;;;;;;1.90;1.80;;;;;;;19.74;52.91;96475.47;9947093;29;20071;-52
2022/06/24 02:36:38;;;;;;;2.25;2.05;;;;;;;19.75;52.84;96484.34;9960380;29;20051;-51
2022/06/24 02:41:58;;;;;;;2.10;1.90;;;;;;;19.75;52.75;96470.84;9947343;29;20055;-52
2022/06/24 02:47:17;;;;;;;1.85;1.70;;;;;;;19.74;52.88;96474.69;9937255;29;20059;-53
2022/06/24 02:52:36;;;;;;;1.65;1.55;;;;;;;19.74;52.88;96461.16;9938418;29;20059;-53
2022/06/24 02:57:56;;;;;;;2.05;1.85;;;;;;;19.74;52.89;96458.47;9952844;29;20094;-53
2022/06/24 03:03:17;;;;;;;2.22;1.90;;;;;;;19.74;52.97;96456.53;9932087;29;20070;-52
2022/06/24 03:08:37;;;;;;;2.70;2.10;;;;;;;19.73;52.97;96456.88;9941288;29;20487;-52
2022/06/24 03:13:56;;;;;;;2.10;1.90;;;;;;;19.74;52.91;96447.66;9948526;29;20506;-53
2022/06/24 03:19:16;;;;;;;2.35;1.95;;;;;;;19.72;52.91;96450.69;9937486;29;20070;-53
2022/06/24 03:24:36;;;;;;;2.08;1.88;;;;;;;19.72;52.86;96437.16;9937738;29;20063;-53
2022/06/24 03:29:55;;;;;;;2.38;1.95;;;;;;;19.72;52.85;96439.88;9937874;29;20061;-53
2022/06/24 03:35:15;;;;;;;2.33;2.00;;;;;;;19.74;52.88;96450.34;9919564;29;20591;-52
2022/06/24 03:40:34;;;;;;;1.90;1.80;;;;;;;19.74;52.77;96436.84;9920666;29;20062;-52
2022/06/24 03:46:01;;;;;;;1.85;1.75;;;;;;;19.72;52.87;96429.06;9926407;29;20071;-53
2022/06/24 03:51:21;;;;;;;2.22;2.00;;;;;;;19.73;52.97;96429.84;9925003;29;20078;-50
2022/06/24 03:56:40;;;;;;;2.22;2.00;;;;;;;19.72;53.05;96428.28;9911637;29;20116;-51
2022/06/24 04:02:00;;;;;;;2.17;1.98;;;;;;;19.72;52.67;96429.06;9936477;29;20163;-51
2022/06/24 04:14:00;;;;;;;1.92;1.83;;;;;;;19.75;52.97;96433.78;9949491;29;20058;-51
2022/06/24 04:19:19;;;;;;;4.57;2.63;;;;;;;19.73;51.71;96433.31;9964286;29;20065;-52
2022/06/24 04:24:38;;;;;;;4.13;2.70;;;;;;;19.69;51.09;96428.91;9987917;29;20058;-50
2022/06/24 04:29:59;;;;;;;4.13;2.60;;;;;;;19.68;51.01;96444.34;9977732;29;20054;-53
2022/06/24 04:35:22;;;;;;;3.47;2.58;;;;;;;19.72;50.96;96437.16;9970101;29;20066;-50
2022/06/24 04:40:41;;;;;;;3.03;2.47;;;;;;;19.73;50.67;96446.84;9989677;29;20506;-53
2022/06/24 04:46:01;;;;;;;3.95;2.60;;;;;;;19.74;50.94;96443.03;9972191;29;20066;-51
2022/06/24 04:51:20;;;;;;;4.90;2.72;;;;;;;19.77;50.96;96446.19;9971696;29;21588;-53
2022/06/24 04:56:39;;;;;;;4.05;2.50;;;;;;;19.76;51.18;96431.88;9973783;29;20425;-52
2022/06/24 05:01:59;;;;;;;3.63;2.45;;;;;;;19.78;51.44;96436.94;9969200;29;20062;-52
2022/06/24 05:07:18;;;;;;;4.40;2.85;;;;;;;19.79;51.72;96438.53;9968608;29;20058;-52
2022/06/24 05:12:38;;;;;;;9.50;3.70;;;;;;;19.79;52.03;96425.78;9960779;29;20510;-50
2022/06/24 05:17:57;;;;;;;6.43;3.33;;;;;;;19.79;51.65;96422.31;9964564;29;20054;-53
2022/06/24 05:23:16;;;;;;;6.78;3.47;;;;;;;19.78;51.39;96410.72;9978367;29;20051;-53
2022/06/24 05:28:35;;;;;;;5.50;3.35;;;;;;;19.78;51.36;96413.41;9977622;29;20112;-53
2022/06/24 05:33:55;;;;;;;6.65;3.10;;;;;;;19.77;51.41;96403.72;9972230;29;20077;-51
2022/06/24 05:39:14;;;;;;;6.60;3.28;;;;;;;19.77;51.78;96389.44;9971391;29;20065;-52
2022/06/24 05:44:34;;;;;;;4.55;3.08;;;;;;;19.76;51.84;96385.94;9974899;29;20047;-52
2022/06/24 05:49:53;;;;;;;4.82;3.08;;;;;;;19.76;51.88;96388.66;10004622;29;20059;-52
2022/06/24 05:55:12;;;;;;;5.07;3.00;;;;;;;19.76;52.05;96385.94;9974673;29;20069;-53
2022/06/24 06:00:31;;;;;;;4.35;3.00;;;;;;;19.75;52.15;96379.72;9972371;29;20067;-51
2022/06/24 06:05:52;;;;;;;5.22;2.88;;;;;;;19.76;52.27;96380.53;9996114;29;20055;-53
2022/06/24 06:11:11;;;;;;;4.80;2.85;;;;;;;19.75;52.38;96379.72;9974099;29;20551;-53
2022/06/24 06:16:31;;;;;;;4.30;2.60;;;;;;;19.75;52.50;96387.84;9969779;29;20099;-52
2022/06/24 06:21:50;;;;;;;4.63;2.67;;;;;;;19.75;52.51;96379.72;9979263;29;20085;-51
2022/06/24 06:27:09;;;;;;;5.03;2.88;;;;;;;19.75;52.65;96368.13;9977387;29;20464;-52
2022/06/24 06:32:29;;;;;;;3.35;2.60;;;;;;;19.75;52.75;96362.72;9966723;29;20061;-50
2022/06/24 06:37:48;;;;;;;3.05;2.70;;;;;;;19.75;52.70;96358.09;9968798;29;20062;-53
2022/06/24 06:43:09;;;;;;;3.17;2.50;;;;;;;19.75;52.94;96358.09;9980484;29;20532;-50
2022/06/24 06:48:28;;;;;;;3.65;2.55;;;;;;;19.75;52.88;96360.81;9978877;29;20517;-51
2022/06/24 06:53:47;;;;;;;2.65;2.35;;;;;;;19.75;53.07;96362.72;9974252;29;20111;-53
2022/06/24 06:59:07;;;;;;;3.22;2.45;;;;;;;19.77;53.07;96362.41;9980030;29;20066;-51
2022/06/24 07:04:26;;;;;;;3.33;2.55;;;;;;;19.77;53.11;96360.47;9953272;29;20414;-50
2022/06/24 07:09:45;;;;;;;4.63;2.80;;;;;;;19.77;53.23;96352.38;9979536;29;20062;-52
2022/06/24 07:15:06;;;;;;;2.67;2.35;;;;;;;19.78;53.29;96358.56;9967653;29;20559;-53
2022/06/24 07:20:26;;;;;;;2.92;2.40;;;;;;;19.78;53.27;96350.44;9974709;29;20624;-52
2022/06/24 07:25:46;;;;;;;4.75;2.50;;;;;;;19.77;53.31;96349.66;9988527;29;20054;-51
2022/06/24 07:31:13;;;;;;;4.35;2.38;;;;;;;19.78;53.55;96351.25;9976953;29;20069;-53
2022/06/24 07:36:33;;;;;;;3.20;2.70;;;;;;;19.77;53.49;96338.84;9955787;29;20087;-53
2022/06/24 07:41:53;;;;;;;3.15;2.15;;;;;;;19.78;53.49;96337.75;9972638;29;20062;-52
2022/06/24 07:47:13;;;;;;;2.95;2.17;;;;;;;19.80;53.38;96331.97;9972568;29;20095;-53
2022/06/24 07:52:32;;;;;;;4.80;2.60;;;;;;;19.79;53.64;96330.41;9967719;29;20111;-53
2022/06/24 07:57:52;;;;;;;5.28;2.50;;;;;;;19.79;53.65;96320.38;9970363;29;20062;-50
2022/06/24 08:03:11;;;;;;;3.70;2.42;;;;;;;19.80;53.61;96304.94;9976520;29;20430;-53
2022/06/24 08:08:31;;;;;;;4.55;2.40;;;;;;;19.79;53.79;96309.56;9984042;29;20066;-53
2022/06/24 08:13:50;;;;;;;3.30;2.30;;;;;;;19.80;53.81;96304.94;9968482;29;20059;-52
2022/06/24 08:19:10;;;;;;;2.65;2.30;;;;;;;19.81;53.86;96306.53;9975604;29;20058;-52
2022/06/24 08:24:29;;;;;;;3.20;2.35;;;;;;;19.80;53.92;96299.53;9982873;29;20510;-53
2022/06/24 08:29:49;;;;;;;2.60;2.40;;;;;;;19.81;54.03;96301.91;9982065;29;20074;-52
2022/06/24 08:35:08;;;;;;;3.33;2.30;;;;;;;19.80;53.96;96294.13;9978327;29;20058;-52
2022/06/24 08:40:29;;;;;;;2.67;2.13;;;;;;;19.82;54.03;96290.00;9971937;29;20501;-52
2022/06/24 08:45:49;;;;;;;2.30;2.10;;;;;;;19.82;53.96;96286.50;9981329;29;20062;-52
2022/06/24 08:51:11;;;;;;;3.45;2.20;;;;;;;19.82;54.10;96298.09;9978865;29;20062;-53
2022/06/24 08:56:31;;;;;;;2.50;2.30;;;;;;;19.83;54.10;96305.06;9972307;29;20059;-53
2022/06/24 09:01:50;;;;;;;3.50;2.50;;;;;;;19.83;54.14;96299.66;9962073;29;20061;-53
2022/06/24 09:07:26;;;;;;;2.75;2.28;;;;;;;19.84;54.25;96295.06;9969280;29;20526;-53
2022/06/24 09:12:47;;;;;;;2.50;2.13;;;;;;;19.84;54.36;96298.53;9976126;29;20062;-53
2022/06/24 09:18:06;;;;;;;2.95;2.60;;;;;;;19.83;54.21;96299.66;9980893;29;20058;-52
2022/06/24 09:23:26;;;;;;;2.88;2.40;;;;;;;19.85;54.26;96293.94;9984805;29;20066;-53
2022/06/24 09:28:47;;;;;;;2.95;2.67;;;;;;;19.87;54.31;96294.38;9953430;29;20063;-53
2022/06/24 09:34:14;;;;;;;2.22;2.03;;;;;;;19.87;54.41;96284.34;9986473;29;20061;-53
2022/06/24 09:39:33;;;;;;;3.55;2.35;;;;;;;19.88;54.43;96274.34;9991475;29;20062;-53
2022/06/24 09:44:54;;;;;;;3.15;2.20;;;;;;;19.87;54.44;96273.53;9979769;29;20058;-53
2022/06/24 09:50:14;;;;;;;2.30;2.10;;;;;;;19.87;54.40;96270.81;9981473;29;20057;-53
2022/06/24 09:55:34;;;;;;;2.20;2.00;;;;;;;19.88;54.47;96258.91;9958012;29;20054;-53
2022/06/24 10:00:53;;;;;;;2.42;2.17;;;;;;;19.88;54.59;96258.91;9983021;29;20062;-54
2022/06/24 10:06:13;;;;;;;2.65;2.10;;;;;;;19.88;54.63;96255.41;9959529;29;20062;-51
2022/06/24 10:11:33;;;;;;;2.63;2.00;;;;;;;19.90;54.63;96247.75;9954312;29;20063;-50
2022/06/24 10:16:53;;;;;;;2.30;2.10;;;;;;;19.90;54.69;96237.72;9981213;29;20080;-53
2022/06/24 10:22:35;;;;;;;2.38;2.15;;;;;;;19.90;54.92;96245.84;9962502;29;20502;-53
2022/06/24 10:28:06;;;;;;;4.90;2.20;;;;;;;19.93;55.00;96247.88;9967697;29;20053;-52
2022/06/24 10:33:27;;;;;;;2.92;2.13;;;;;;;19.93;55.17;96234.34;9974236;29;20069;-52
2022/06/24 10:38:47;;;;;;;3.00;2.30;;;;;;;19.95;55.31;96225.88;9961006;29;20054;-53
2022/06/24 10:44:30;;;;;;;4.53;2.40;;;;;;;19.96;55.38;96230.16;9963178;29;20111;-52
2022/06/24 10:49:52;;;;;;;2.47;2.28;;;;;;;19.95;55.35;96232.09;9975996;29;20063;-53
2022/06/24 10:55:17;;;;;;;3.65;2.50;;;;;;;19.95;55.54;96220.47;9976566;29;20062;-53
2022/06/24 11:00:37;;;;;;;2.72;2.53;;;;;;;19.94;55.57;96222.41;9968917;29;20059;-52
2022/06/24 11:05:56;;;;;;;3.97;2.55;;;;;;;19.95;55.56;96217.78;9967218;29;20054;-52
2022/06/24 11:11:29;;;;;;;3.97;2.80;;;;;;;19.95;55.60;96221.28;9975245;29;20066;-53
2022/06/24 11:16:48;;;;;;;2.70;2.50;;;;;;;19.95;55.72;96210.47;9974771;29;20062;-54
2022/06/24 11:22:08;;;;;;;2.58;2.38;;;;;;;19.95;55.68;96207.75;9964649;29;20055;-52
2022/06/24 11:27:35;;;;;;;2.83;2.60;;;;;;;19.95;55.59;96209.66;9964027;29;20439;-53
2022/06/24 11:32:59;;;;;;;3.13;2.55;;;;;;;19.96;55.72;96219.34;9973041;29;20584;-53
2022/06/24 11:38:19;;;;;;;3.20;2.65;;;;;;;19.95;55.67;96215.88;9955721;29;20055;-53
2022/06/24 11:43:38;;;;;;;2.70;2.50;;;;;;;19.97;55.80;96222.84;9973733;29;20061;-54
2022/06/24 11:49:02;;;;;;;11.80;3.55;;;;;;;19.98;56.18;96214.41;9977181;29;20065;-52
2022/06/24 11:54:26;;;;;;;8.27;3.65;;;;;;;20.05;57.31;96220.03;9978039;29;20054;-53
2022/06/24 11:59:46;;;;;;;8.45;3.63;;;;;;;20.03;55.82;96218.78;9959318;29;20065;-53
2022/06/24 12:05:07;;;;;;;4.82;3.30;;;;;;;19.97;55.86;96220.13;9968236;29;20065;-54
2022/06/24 12:10:26;;;;;;;3.95;3.45;;;;;;;19.97;57.03;96218.22;9963770;29;20071;-53
2022/06/24 12:15:46;;;;;;;5.15;3.63;;;;;;;20.01;57.67;96229.91;9977495;29;20082;-53
2022/06/24 12:21:07;;;;;;;5.28;3.63;;;;;;;20.02;57.18;96228.81;9985772;29;20062;-54
2022/06/24 12:26:26;;;;;;;4.85;3.60;;;;;;;19.98;57.36;96219.81;9961898;29;20058;-53
2022/06/24 12:31:50;;;;;;;6.72;4.10;;;;;;;20.00;58.53;96231.06;9972349;29;20115;-54
2022/06/24 12:37:12;;;;;;;7.03;4.07;;;;;;;20.04;58.67;96225.78;9978335;29;20146;-54
2022/06/24 12:42:31;;;;;;;4.55;3.67;;;;;;;20.02;57.67;96214.50;9962903;29;20644;-53
2022/06/24 12:53:30;;;;;;;3.70;3.30;;;;;;;19.95;57.99;96221.28;9981718;29;20063;-53
2022/06/24 12:58:51;;;;;;;3.80;3.15;;;;;;;19.98;58.20;96214.41;9964566;29;20071;-53
2022/06/24 13:04:12;;;;;;;4.20;3.05;;;;;;;20.02;58.11;96214.50;9966114;29;20448;-53
2022/06/24 13:09:32;;;;;;;4.97;3.13;;;;;;;20.03;57.84;96206.06;9984426;29;20050;-53
2022/06/24 13:14:51;;;;;;;4.13;3.30;;;;;;;19.99;57.73;96215.19;9978464;29;20070;-53
2022/06/24 13:20:12;;;;;;;3.38;3.08;;;;;;;19.95;57.66;96225.88;9952018;29;20422;-52
2022/06/24 13:25:31;;;;;;;4.00;2.97;;;;;;;19.97;57.89;96298.53;9989159;29;20414;-54
2022/06/24 13:30:51;;;;;;;3.17;2.88;;;;;;;19.99;57.91;96291.66;9979381;29;20069;-54
2022/06/24 13:36:10;;;;;;;4.00;2.97;;;;;;;20.02;57.90;96284.81;9968971;29;20059;-53
2022/06/24 13:41:33;;;;;;;3.10;2.80;;;;;;;20.04;57.94;96269.03;9974803;29;20114;-53
2022/06/24 13:46:54;;;;;;;2.90;2.70;;;;;;;20.02;56.85;96263.19;9972969;29;20066;-54
2022/06/24 13:52:14;;;;;;;2.88;2.63;;;;;;;19.97;57.43;96271.50;9978940;29;20058;-52
2022/06/24 13:57:33;;;;;;;3.25;2.75;;;;;;;19.97;57.70;96272.28;9965760;29;20070;-53
2022/06/24 14:02:53;;;;;;;3.92;3.08;;;;;;;19.98;57.76;96257.66;9964416;29;20061;-50
2022/06/24 14:08:13;;;;;;;3.97;3.30;;;;;;;19.99;59.58;96256.50;9971875;29;20069;-49
2022/06/24 14:13:32;;;;;;;6.22;3.83;;;;;;;19.98;60.95;96265.75;9966159;29;20117;-50
2022/06/24 14:18:55;;;;;;;4.15;3.67;;;;;;;19.99;62.13;96271.94;9975539;29;20069;-51
2022/06/24 14:24:33;;;;;;;5.25;4.13;;;;;;;19.98;63.23;96267.69;9956387;29;20058;-48
2022/06/24 14:29:52;;;;;;;5.18;4.10;;;;;;;20.00;63.80;96274.31;9978982;29;20062;-53
2022/06/24 14:35:12;;;;;;;4.57;4.15;;;;;;;19.99;64.19;96263.84;9957531;29;20126;-53
2022/06/24 14:40:32;;;;;;;5.28;4.50;;;;;;;19.99;64.98;96253.03;9959886;29;20103;-53
2022/06/24 14:45:51;;;;;;;4.97;4.47;;;;;;;19.99;65.14;96266.53;9954470;29;20073;-53
2022/06/24 14:51:11;;;;;;;5.93;4.55;;;;;;;19.99;65.50;96263.84;9963675;29;20476;-51
2022/06/24 14:56:30;;;;;;;4.47;4.07;;;;;;;19.98;64.00;96246.06;9959816;29;20055;-51
2022/06/24 15:01:50;;;;;;;5.97;4.13;;;;;;;19.97;63.03;96260.69;9969669;29;20077;-51
2022/06/24 15:07:09;;;;;;;5.78;4.10;;;;;;;19.97;62.37;96268.81;9958878;29;20111;-52
2022/06/24 15:12:29;;;;;;;4.60;4.20;;;;;;;19.98;61.89;96256.88;9949146;29;20050;-54
2022/06/24 15:17:48;;;;;;;4.85;4.40;;;;;;;19.98;61.71;96235.25;9956995;29;20419;-53
2022/06/24 15:23:08;;;;;;;5.00;4.55;;;;;;;19.97;61.31;96223.63;9960472;29;20490;-54
2022/06/24 15:28:29;;;;;;;5.07;4.68;;;;;;;19.98;61.00;96205.50;9954485;29;20066;-54
2022/06/24 15:33:48;;;;;;;8.80;6.25;;;;;;;19.98;61.71;96186.59;9962102;29;20051;-55
2022/06/24 15:39:08;;;;;;;7.13;4.97;;;;;;;19.98;63.48;96195.47;9945272;29;20066;-54
2022/06/24 15:44:27;;;;;;;4.80;4.40;;;;;;;20.00;64.87;96222.16;9946694;29;20063;-54
2022/06/24 15:49:47;;;;;;;7.18;5.13;;;;;;;20.00;65.19;96216.75;9954236;29;20063;-53
2022/06/24 15:55:06;;;;;;;5.88;4.78;;;;;;;20.00;65.34;96206.72;9957132;29;20088;-56
2022/06/24 16:00:26;;;;;;;5.50;4.95;;;;;;;20.01;65.64;96207.50;9941863;29;20050;-56
2022/06/24 16:05:45;;;;;;;5.75;4.65;;;;;;;20.00;65.33;96198.63;9952072;29;20074;-55
2022/06/24 16:11:06;;;;;;;5.07;4.57;;;;;;;20.01;64.70;96202.09;9953609;29;20054;-55
2022/06/24 16:16:25;;;;;;;4.65;4.25;;;;;;;20.01;63.83;96215.63;9963463;29;20619;-55
2022/06/24 16:21:45;;;;;;;5.55;4.47;;;;;;;20.01;64.72;96215.63;9964121;29;20506;-54
2022/06/24 16:32:46;;;;;;;5.45;4.40;;;;;;;20.01;67.05;96188.59;9960002;29;20062;-52
2022/06/24 16:38:05;;;;;;;5.00;4.50;;;;;;;19.98;68.16;96184.66;9956059;29;20062;-55
2022/06/24 16:43:28;;;;;;;4.93;4.53;;;;;;;19.97;67.61;96185.00;9962694;29;20058;-55
2022/06/24 16:48:47;;;;;;;5.50;4.65;;;;;;;19.98;66.51;96181.19;9975042;29;20058;-55
2022/06/24 16:54:06;;;;;;;5.28;4.68;;;;;;;19.98;65.38;96171.13;9961847;29;20058;-56
2022/06/24 16:59:25;;;;;;;6.43;4.50;;;;;;;19.99;64.70;96182.72;9973654;29;20050;-56
2022/06/24 17:04:45;;;;;;;5.18;4.68;;;;;;;20.00;64.38;96184.31;9962848;29;20116;-56
2022/06/24 17:10:05;;;;;;;4.63;4.22;;;;;;;19.99;64.02;96194.31;9960353;29;20074;-55
2022/06/24 17:15:25;;;;;;;4.70;4.30;;;;;;;20.01;64.00;96202.09;9958834;29;20078;-55
2022/06/24 17:20:45;;;;;;;4.85;4.35;;;;;;;20.00;64.12;96177.00;9957644;29;20063;-56
2022/06/24 17:26:04;;;;;;;5.05;4.65;;;;;;;20.01;64.03;96191.28;9960461;29;20069;-57
2022/06/24 17:31:23;;;;;;;5.50;4.10;;;;;;;20.02;64.04;96176.66;9946746;29;20058;-56
2022/06/24 17:36:43;;;;;;;5.97;4.90;;;;;;;20.02;64.25;96163.13;9955677;29;20065;-54
2022/06/24 17:42:03;;;;;;;5.72;4.88;;;;;;;20.01;64.59;96148.03;9950441;29;20058;-55
2022/06/24 17:47:23;;;;;;;5.13;4.60;;;;;;;20.02;64.74;96144.22;9947735;29;20593;-55
2022/06/24 17:52:42;;;;;;;8.48;5.32;;;;;;;20.02;64.66;96144.22;9946953;29;20055;-55
2022/06/24 17:58:02;;;;;;;17.52;5.60;;;;;;;20.02;64.38;96144.22;9947127;29;20063;-57
2022/06/24 18:03:21;;;;;;;30.20;7.32;;;;;;;20.02;64.48;96145.00;9955360;29;20116;-56
2022/06/24 18:08:40;;;;;;;21.67;8.10;;;;;;;20.03;64.32;96129.53;9947076;29;20066;-56
2022/06/24 18:14:00;;;;;;;25.50;8.65;;;;;;;20.02;63.88;96106.34;9950607;29;20082;-55
2022/06/24 18:19:19;;;;;;;30.38;8.88;;;;;;;20.03;63.68;96118.72;9980439;29;20062;-55
2022/06/24 18:24:38;;;;;;;17.77;8.45;;;;;;;20.03;64.61;96137.66;9950527;29;20065;-56
2022/06/24 18:29:58;;;;;;;17.00;7.35;;;;;;;-146.19;100.00;65364.44;9949112;29;20054;-58
2022/06/24 18:35:17;;;;;;;10.70;6.15;;;;;;;20.02;66.68;96141.50;9963816;29;20065;-57
2022/06/24 18:40:36;;;;;;;12.40;6.35;;;;;;;20.01;66.09;96134.50;9949574;29;20465;-55
2022/06/24 18:45:56;;;;;;;15.90;6.22;;;;;;;20.01;65.39;96126.41;9942392;29;20927;-55
2022/06/24 18:51:15;;;;;;;8.70;5.28;;;;;;;20.01;66.42;96123.69;9947227;29;20055;-55
2022/06/24 18:56:35;;;;;;;5.15;4.65;;;;;;;19.98;67.23;96122.47;9939307;29;20066;-55
2022/06/24 19:01:54;;;;;;;5.68;4.80;;;;;;;19.97;67.32;96125.50;9962263;29;20066;-55
2022/06/24 19:07:14;;;;;;;5.63;4.60;;;;;;;19.95;67.60;96132.06;9946556;29;20060;-55
2022/06/24 19:12:33;;;;;;;6.35;4.65;;;;;;;19.93;67.92;96131.63;9941343;29;20167;-56
2022/06/24 19:17:52;;;;;;;6.15;4.78;;;;;;;19.93;67.93;96165.97;9941833;29;20070;-58
2022/06/24 19:23:12;;;;;;;7.07;4.75;;;;;;;19.93;67.93;96180.28;9963790;29;20051;-58
2022/06/24 19:28:31;;;;;;;5.90;5.28;;;;;;;19.93;68.05;96188.41;9971729;29;20063;-57
2022/06/24 19:33:53;;;;;;;5.32;4.80;;;;;;;19.92;68.26;96183.31;9947819;29;20518;-54
2022/06/24 19:39:13;;;;;;;6.07;5.00;;;;;;;19.92;68.36;96196.84;9952083;29;20077;-56
2022/06/24 19:44:33;;;;;;;6.55;5.15;;;;;;;19.90;68.28;96175.53;9960768;29;20058;-56
2022/06/24 19:49:52;;;;;;;6.30;5.05;;;;;;;19.89;68.56;96168.56;9964669;29;20613;-56
2022/06/24 19:55:11;;;;;;;5.70;4.95;;;;;;;19.88;68.68;96177.81;9970441;29;20055;-56
2022/06/24 20:00:32;;;;;;;6.78;4.70;;;;;;;19.87;68.69;96170.81;9961850;29;20661;-56
2022/06/24 20:05:56;;;;;;;6.47;4.95;;;;;;;19.87;68.90;96202.47;9983178;29;20151;-56
2022/06/24 20:16:55;;;;;;;4.93;4.43;;;;;;;19.86;69.05;96220.59;9961748;29;20426;-58
2022/06/24 20:22:14;;;;;;;4.18;3.72;;;;;;;19.85;69.23;96231.75;9965458;29;20051;-56
2022/06/24 20:27:34;;;;;;;3.50;3.20;;;;;;;19.83;69.06;96218.56;9966210;29;20051;-56
2022/06/24 20:32:53;;;;;;;2.85;2.40;;;;;;;19.83;68.86;96261.81;9960227;29;20066;-56
2022/06/24 20:38:12;;;;;;;4.97;2.20;;;;;;;19.83;68.55;96240.19;9952650;29;20076;-56
2022/06/24 20:43:32;;;;;;;7.72;2.60;;;;;;;19.83;67.70;96196.16;9975964;29;20053;-56
2022/06/24 20:48:51;;;;;;;4.00;2.22;;;;;;;19.84;66.95;96198.53;9981413;29;20057;-57
2022/06/24 20:54:11;;;;;;;2.88;2.20;;;;;;;19.86;66.29;96195.50;9969797;29;20463;-56
2022/06/24 20:59:30;;;;;;;2.85;2.40;;;;;;;19.86;65.87;96250.34;9965497;29;20065;-57
2022/06/24 21:04:50;;;;;;;4.32;2.30;;;;;;;19.87;65.61;96248.41;9956345;29;20070;-57
2022/06/24 21:10:09;;;;;;;2.50;2.30;;;;;;;19.88;65.41;96244.59;9958123;29;20579;-56
2022/06/24 21:15:29;;;;;;;2.58;2.38;;;;;;;19.90;65.29;96226.13;9965221;29;20561;-56
2022/06/24 21:20:48;;;;;;;3.67;2.67;;;;;;;19.90;65.21;96221.50;9967648;29;20519;-56
2022/06/24 21:26:07;;;;;;;3.08;2.38;;;;;;;19.90;65.17;96234.25;9978334;29;20050;-56
2022/06/24 21:31:27;;;;;;;2.90;2.15;;;;;;;19.89;65.10;96257.75;9964193;29;20487;-56
2022/06/24 21:36:47;;;;;;;4.03;2.67;;;;;;;19.91;64.88;96263.59;9969716;29;20092;-56
2022/06/24 21:42:06;;;;;;;2.80;2.15;;;;;;;19.90;64.84;96228.84;9972461;29;20053;-57
2022/06/24 21:47:26;;;;;;;2.83;2.40;;;;;;;19.91;64.72;96219.56;9964416;29;20054;-56
2022/06/24 21:52:45;;;;;;;2.80;2.15;;;;;;;19.90;64.68;96218.03;9964166;29;20066;-56
2022/06/24 21:58:05;;;;;;;3.47;2.30;;;;;;;19.91;64.90;96219.56;9962660;29;20407;-56
2022/06/24 22:03:24;;;;;;;4.82;2.30;;;;;;;19.90;64.84;96199.88;9969302;29;20107;-56
2022/06/24 22:08:43;;;;;;;2.65;2.20;;;;;;;19.90;64.62;96183.66;9963156;29;20058;-56
2022/06/24 22:14:05;;;;;;;2.60;2.10;;;;;;;19.90;64.60;96175.53;9971657;29;20070;-56
2022/06/24 22:19:24;;;;;;;2.80;2.42;;;;;;;19.89;64.67;96155.03;9977326;29;20066;-56
2022/06/24 22:24:44;;;;;;;2.47;2.20;;;;;;;19.89;64.57;96133.41;9980067;29;20066;-56
2022/06/24 22:30:03;;;;;;;2.42;2.00;;;;;;;19.90;64.51;96113.38;9972732;29;20062;-56
2022/06/24 22:35:23;;;;;;;2.35;2.15;;;;;;;19.89;64.47;96111.78;9975943;29;20092;-56
2022/06/24 22:40:42;;;;;;;2.28;2.08;;;;;;;19.88;64.46;96126.44;9972491;29;20081;-56
2022/06/24 22:46:01;;;;;;;2.00;1.80;;;;;;;19.89;64.52;96144.22;9973955;29;20066;-56
2022/06/24 22:51:21;;;;;;;2.00;1.80;;;;;;;19.89;64.49;96171.25;9983293;29;20563;-57
2022/06/24 22:56:40;;;;;;;2.05;1.92;;;;;;;19.88;64.48;96177.81;9970574;29;20058;-57
2022/06/24 23:01:59;;;;;;;2.17;1.98;;;;;;;19.89;64.58;96198.28;9984106;29;20054;-56
2022/06/24 23:07:18;;;;;;;2.38;1.92;;;;;;;19.89;64.45;96205.63;9974382;29;20087;-57
2022/06/24 23:12:38;;;;;;;2.28;2.00;;;;;;;19.88;64.50;96210.25;9973430;29;20054;-56
2022/06/24 23:17:57;;;;;;;2.45;2.00;;;;;;;19.90;64.57;96207.22;9972084;29;20085;-56
2022/06/24 23:23:16;;;;;;;2.17;1.98;;;;;;;19.89;64.46;96206.41;9970411;29;20062;-57
2022/06/24 23:28:37;;;;;;;2.15;1.83;;;;;;;19.89;64.42;96197.50;9970390;29;20113;-57
2022/06/24 23:33:56;;;;;;;2.60;1.70;;;;;;;19.90;64.54;96196.41;9972464;29;20423;-56
2022/06/24 23:39:16;;;;;;;2.00;1.88;;;;;;;19.89;64.46;96201.00;9963590;29;20487;-56
2022/06/24 23:44:35;;;;;;;1.90;1.80;;;;;;;19.89;64.55;96195.59;9976610;29;20094;-56
2022/06/24 23:55:32;;;;;;;2.17;1.70;;;;;;;19.88;64.42;96182.44;9966961;29;20063;-57
